sensor_id;sensor_type;location;lat;lon;timestamp;P1;durP1;ratioP1;P2;durP2;ratioP2
71667;SDS011;59504;54.806;9.640;2022-12-24T00:01:53;8.77;;;2.60;;
71667;SDS011;59504;54.806;9.640;2022-12-24T00:04:13;8.27;;;2.40;;
71667;SDS011;59504;54.806;9.640;2022-12-24T00:06:32;7.63;;;2.42;;
71667;SDS011;59504;54.806;9.640;2022-12-24T00:08:51;8.82;;;2.70;;
71667;SDS011;59504;54.806;9.640;2022-12-24T00:11:10;9.68;;;2.45;;
71667;SDS011;59504;54.806;9.640;2022-12-24T00:13:29;7.80;;;2.45;;
71667;SDS011;59504;54.806;9.640;2022-12-24T00:15:48;8.02;;;2.72;;
71667;SDS011;59504;54.806;9.640;2022-12-24T00:18:08;10.50;;;2.88;;
71667;SDS011;59504;54.806;9.640;2022-12-24T00:20:27;8.27;;;2.65;;
71667;SDS011;59504;54.806;9.640;2022-12-24T00:22:46;7.30;;;1.92;;
71667;SDS011;59504;54.806;9.640;2022-12-24T00:25:06;8.23;;;2.38;;
71667;SDS011;59504;54.806;9.640;2022-12-24T00:27:25;5.57;;;2.05;;
71667;SDS011;59504;54.806;9.640;2022-12-24T00:29:44;8.82;;;2.60;;
71667;SDS011;59504;54.806;9.640;2022-12-24T00:32:03;12.23;;;2.50;;
71667;SDS011;59504;54.806;9.640;2022-12-24T00:34:27;8.52;;;2.17;;
71667;SDS011;59504;54.806;9.640;2022-12-24T00:36:46;6.53;;;1.95;;
71667;SDS011;59504;54.806;9.640;2022-12-24T00:39:05;9.57;;;2.25;;
71667;SDS011;59504;54.806;9.640;2022-12-24T00:41:24;6.18;;;2.22;;
71667;SDS011;59504;54.806;9.640;2022-12-24T00:43:43;6.38;;;2.35;;
71667;SDS011;59504;54.806;9.640;2022-12-24T00:46:02;16.02;;;2.47;;
71667;SDS011;59504;54.806;9.640;2022-12-24T00:48:21;7.20;;;2.50;;
71667;SDS011;59504;54.806;9.640;2022-12-24T00:50:40;12.52;;;2.65;;
71667;SDS011;59504;54.806;9.640;2022-12-24T00:52:59;10.48;;;2.70;;
71667;SDS011;59504;54.806;9.640;2022-12-24T00:55:18;13.88;;;2.38;;
71667;SDS011;59504;54.806;9.640;2022-12-24T00:57:38;8.27;;;2.72;;
71667;SDS011;59504;54.806;9.640;2022-12-24T00:59:56;6.75;;;2.03;;
71667;SDS011;59504;54.806;9.640;2022-12-24T01:02:15;4.57;;;2.28;;
71667;SDS011;59504;54.806;9.640;2022-12-24T01:04:34;8.93;;;2.05;;
71667;SDS011;59504;54.806;9.640;2022-12-24T01:07:12;5.32;;;1.88;;
71667;SDS011;59504;54.806;9.640;2022-12-24T01:09:31;8.20;;;1.80;;
71667;SDS011;59504;54.806;9.640;2022-12-24T01:11:50;5.57;;;2.00;;
71667;SDS011;59504;54.806;9.640;2022-12-24T01:14:09;8.73;;;2.03;;
71667;SDS011;59504;54.806;9.640;2022-12-24T01:16:28;7.70;;;2.00;;
71667;SDS011;59504;54.806;9.640;2022-12-24T01:18:48;5.25;;;1.77;;
71667;SDS011;59504;54.806;9.640;2022-12-24T01:21:07;13.07;;;2.13;;
71667;SDS011;59504;54.806;9.640;2022-12-24T01:23:27;10.55;;;2.15;;
71667;SDS011;59504;54.806;9.640;2022-12-24T01:25:47;7.25;;;1.83;;
71667;SDS011;59504;54.806;9.640;2022-12-24T01:28:06;6.40;;;1.58;;
71667;SDS011;59504;54.806;9.640;2022-12-24T01:30:25;7.30;;;1.63;;
71667;SDS011;59504;54.806;9.640;2022-12-24T01:32:44;7.40;;;2.03;;
71667;SDS011;59504;54.806;9.640;2022-12-24T01:35:03;10.55;;;2.08;;
71667;SDS011;59504;54.806;9.640;2022-12-24T01:37:23;8.52;;;1.65;;
71667;SDS011;59504;54.806;9.640;2022-12-24T01:39:43;6.85;;;1.95;;
71667;SDS011;59504;54.806;9.640;2022-12-24T01:42:08;7.43;;;1.70;;
71667;SDS011;59504;54.806;9.640;2022-12-24T01:44:53;6.20;;;2.10;;
71667;SDS011;59504;54.806;9.640;2022-12-24T01:47:23;4.68;;;1.80;;
71667;SDS011;59504;54.806;9.640;2022-12-24T01:50:12;6.90;;;2.00;;
71667;SDS011;59504;54.806;9.640;2022-12-24T01:52:33;19.33;;;2.28;;
71667;SDS011;59504;54.806;9.640;2022-12-24T01:54:54;6.88;;;2.20;;
71667;SDS011;59504;54.806;9.640;2022-12-24T01:57:19;4.93;;;2.22;;
71667;SDS011;59504;54.806;9.640;2022-12-24T01:59:43;11.68;;;2.13;;
71667;SDS011;59504;54.806;9.640;2022-12-24T02:02:07;13.48;;;2.38;;
71667;SDS011;59504;54.806;9.640;2022-12-24T02:04:36;9.55;;;2.53;;
71667;SDS011;59504;54.806;9.640;2022-12-24T02:07:00;8.45;;;2.78;;
71667;SDS011;59504;54.806;9.640;2022-12-24T02:09:19;10.80;;;2.88;;
71667;SDS011;59504;54.806;9.640;2022-12-24T02:11:38;10.00;;;2.80;;
71667;SDS011;59504;54.806;9.640;2022-12-24T02:14:01;10.07;;;2.85;;
71667;SDS011;59504;54.806;9.640;2022-12-24T02:27:45;8.60;;;2.38;;
71667;SDS011;59504;54.806;9.640;2022-12-24T02:30:28;11.98;;;2.72;;
71667;SDS011;59504;54.806;9.640;2022-12-24T02:33:30;10.20;;;2.88;;
71667;SDS011;59504;54.806;9.640;2022-12-24T02:35:47;11.10;;;3.00;;
71667;SDS011;59504;54.806;9.640;2022-12-24T02:38:14;9.75;;;2.63;;
71667;SDS011;59504;54.806;9.640;2022-12-24T02:40:41;12.82;;;2.78;;
71667;SDS011;59504;54.806;9.640;2022-12-24T02:43:09;8.32;;;2.60;;
71667;SDS011;59504;54.806;9.640;2022-12-24T02:45:33;13.30;;;2.88;;
71667;SDS011;59504;54.806;9.640;2022-12-24T02:47:54;8.88;;;2.70;;
71667;SDS011;59504;54.806;9.640;2022-12-24T02:50:15;9.27;;;2.47;;
71667;SDS011;59504;54.806;9.640;2022-12-24T02:52:36;6.90;;;2.90;;
71667;SDS011;59504;54.806;9.640;2022-12-24T02:54:57;6.28;;;2.42;;
71667;SDS011;59504;54.806;9.640;2022-12-24T02:58:09;6.88;;;2.40;;
71667;SDS011;59504;54.806;9.640;2022-12-24T03:00:09;9.15;;;2.85;;
71667;SDS011;59504;54.806;9.640;2022-12-24T03:05:12;11.38;;;2.58;;
71667;SDS011;59504;54.806;9.640;2022-12-24T03:08:03;8.57;;;2.70;;
71667;SDS011;59504;54.806;9.640;2022-12-24T03:10:35;9.52;;;3.17;;
71667;SDS011;59504;54.806;9.640;2022-12-24T03:13:14;15.10;;;3.20;;
71667;SDS011;59504;54.806;9.640;2022-12-24T03:15:34;11.00;;;3.50;;
71667;SDS011;59504;54.806;9.640;2022-12-24T03:17:56;6.20;;;2.58;;
71667;SDS011;59504;54.806;9.640;2022-12-24T03:20:21;10.20;;;3.17;;
71667;SDS011;59504;54.806;9.640;2022-12-24T03:22:56;5.88;;;2.60;;
71667;SDS011;59504;54.806;9.640;2022-12-24T03:25:15;9.38;;;3.00;;
71667;SDS011;59504;54.806;9.640;2022-12-24T03:27:35;9.25;;;3.08;;
71667;SDS011;59504;54.806;9.640;2022-12-24T03:29:56;11.48;;;3.00;;
71667;SDS011;59504;54.806;9.640;2022-12-24T03:32:16;8.57;;;2.95;;
71667;SDS011;59504;54.806;9.640;2022-12-24T03:34:42;10.60;;;2.90;;
71667;SDS011;59504;54.806;9.640;2022-12-24T03:37:01;9.75;;;3.15;;
71667;SDS011;59504;54.806;9.640;2022-12-24T03:39:21;7.65;;;2.63;;
71667;SDS011;59504;54.806;9.640;2022-12-24T03:41:41;7.18;;;2.80;;
71667;SDS011;59504;54.806;9.640;2022-12-24T03:44:00;9.48;;;3.00;;
71667;SDS011;59504;54.806;9.640;2022-12-24T03:46:19;12.48;;;3.17;;
71667;SDS011;59504;54.806;9.640;2022-12-24T03:48:38;11.40;;;3.10;;
71667;SDS011;59504;54.806;9.640;2022-12-24T03:50:57;9.05;;;2.90;;
71667;SDS011;59504;54.806;9.640;2022-12-24T03:53:16;11.18;;;2.88;;
71667;SDS011;59504;54.806;9.640;2022-12-24T03:55:36;13.32;;;3.20;;
71667;SDS011;59504;54.806;9.640;2022-12-24T03:57:57;12.20;;;3.63;;
71667;SDS011;59504;54.806;9.640;2022-12-24T04:00:16;11.05;;;3.42;;
71667;SDS011;59504;54.806;9.640;2022-12-24T04:02:35;15.07;;;3.63;;
71667;SDS011;59504;54.806;9.640;2022-12-24T04:04:55;9.73;;;3.17;;
71667;SDS011;59504;54.806;9.640;2022-12-24T04:07:14;11.82;;;3.30;;
71667;SDS011;59504;54.806;9.640;2022-12-24T04:09:33;6.15;;;2.90;;
71667;SDS011;59504;54.806;9.640;2022-12-24T04:11:54;7.00;;;3.08;;
71667;SDS011;59504;54.806;9.640;2022-12-24T04:14:13;12.50;;;4.00;;
71667;SDS011;59504;54.806;9.640;2022-12-24T04:16:32;12.35;;;3.72;;
71667;SDS011;59504;54.806;9.640;2022-12-24T04:18:51;11.10;;;3.53;;
71667;SDS011;59504;54.806;9.640;2022-12-24T04:21:10;6.28;;;3.15;;
71667;SDS011;59504;54.806;9.640;2022-12-24T04:23:30;10.10;;;3.75;;
71667;SDS011;59504;54.806;9.640;2022-12-24T04:25:50;15.93;;;3.97;;
71667;SDS011;59504;54.806;9.640;2022-12-24T04:28:09;14.18;;;3.80;;
71667;SDS011;59504;54.806;9.640;2022-12-24T04:30:29;11.68;;;4.20;;
71667;SDS011;59504;54.806;9.640;2022-12-24T04:32:45;7.85;;;3.40;;
71667;SDS011;59504;54.806;9.640;2022-12-24T04:35:04;10.50;;;3.90;;
71667;SDS011;59504;54.806;9.640;2022-12-24T04:37:24;14.13;;;3.97;;
71667;SDS011;59504;54.806;9.640;2022-12-24T04:39:43;17.58;;;4.60;;
71667;SDS011;59504;54.806;9.640;2022-12-24T04:42:02;17.05;;;4.85;;
71667;SDS011;59504;54.806;9.640;2022-12-24T04:44:21;11.73;;;4.38;;
71667;SDS011;59504;54.806;9.640;2022-12-24T04:46:40;10.88;;;4.22;;
71667;SDS011;59504;54.806;9.640;2022-12-24T04:49:00;11.30;;;3.92;;
71667;SDS011;59504;54.806;9.640;2022-12-24T04:51:20;11.52;;;3.55;;
71667;SDS011;59504;54.806;9.640;2022-12-24T04:53:40;15.32;;;3.88;;
71667;SDS011;59504;54.806;9.640;2022-12-24T04:56:00;9.70;;;3.50;;
71667;SDS011;59504;54.806;9.640;2022-12-24T04:58:19;10.43;;;3.83;;
71667;SDS011;59504;54.806;9.640;2022-12-24T05:00:39;8.85;;;3.25;;
71667;SDS011;59504;54.806;9.640;2022-12-24T05:02:59;8.23;;;3.20;;
71667;SDS011;59504;54.806;9.640;2022-12-24T05:05:18;11.90;;;3.72;;
71667;SDS011;59504;54.806;9.640;2022-12-24T05:07:37;10.35;;;3.83;;
71667;SDS011;59504;54.806;9.640;2022-12-24T05:09:56;8.15;;;3.08;;
71667;SDS011;59504;54.806;9.640;2022-12-24T05:12:15;9.93;;;3.53;;
71667;SDS011;59504;54.806;9.640;2022-12-24T05:14:34;13.40;;;3.78;;
71667;SDS011;59504;54.806;9.640;2022-12-24T05:16:53;10.30;;;3.70;;
71667;SDS011;59504;54.806;9.640;2022-12-24T05:19:12;12.77;;;3.30;;
71667;SDS011;59504;54.806;9.640;2022-12-24T05:21:32;13.48;;;3.17;;
71667;SDS011;59504;54.806;9.640;2022-12-24T05:23:51;14.77;;;3.20;;
71667;SDS011;59504;54.806;9.640;2022-12-24T05:26:39;7.13;;;2.83;;
71667;SDS011;59504;54.806;9.640;2022-12-24T05:29:03;10.20;;;3.43;;
71667;SDS011;59504;54.806;9.640;2022-12-24T05:31:24;11.38;;;3.33;;
71667;SDS011;59504;54.806;9.640;2022-12-24T05:33:44;12.68;;;3.22;;
71667;SDS011;59504;54.806;9.640;2022-12-24T05:36:04;6.50;;;2.72;;
71667;SDS011;59504;54.806;9.640;2022-12-24T05:38:24;12.77;;;3.40;;
71667;SDS011;59504;54.806;9.640;2022-12-24T05:40:43;9.23;;;3.25;;
71667;SDS011;59504;54.806;9.640;2022-12-24T05:43:02;6.90;;;2.85;;
71667;SDS011;59504;54.806;9.640;2022-12-24T05:45:21;11.57;;;3.47;;
71667;SDS011;59504;54.806;9.640;2022-12-24T05:47:40;8.60;;;3.25;;
71667;SDS011;59504;54.806;9.640;2022-12-24T05:49:59;14.43;;;3.13;;
71667;SDS011;59504;54.806;9.640;2022-12-24T05:52:18;10.35;;;2.35;;
71667;SDS011;59504;54.806;9.640;2022-12-24T05:54:37;14.35;;;3.10;;
71667;SDS011;59504;54.806;9.640;2022-12-24T05:56:56;7.05;;;3.10;;
71667;SDS011;59504;54.806;9.640;2022-12-24T05:59:15;12.60;;;3.20;;
71667;SDS011;59504;54.806;9.640;2022-12-24T06:01:35;7.80;;;3.00;;
71667;SDS011;59504;54.806;9.640;2022-12-24T06:03:55;13.57;;;3.47;;
71667;SDS011;59504;54.806;9.640;2022-12-24T06:06:16;8.38;;;3.30;;
71667;SDS011;59504;54.806;9.640;2022-12-24T06:08:39;13.20;;;4.05;;
71667;SDS011;59504;54.806;9.640;2022-12-24T06:11:03;7.25;;;3.17;;
71667;SDS011;59504;54.806;9.640;2022-12-24T06:13:26;9.88;;;4.18;;
71667;SDS011;59504;54.806;9.640;2022-12-24T06:15:43;9.75;;;3.80;;
71667;SDS011;59504;54.806;9.640;2022-12-24T06:18:02;9.82;;;3.55;;
71667;SDS011;59504;54.806;9.640;2022-12-24T06:20:21;7.47;;;3.22;;
71667;SDS011;59504;54.806;9.640;2022-12-24T06:22:40;7.15;;;3.35;;
71667;SDS011;59504;54.806;9.640;2022-12-24T06:24:59;12.40;;;4.10;;
71667;SDS011;59504;54.806;9.640;2022-12-24T06:27:18;15.30;;;4.43;;
71667;SDS011;59504;54.806;9.640;2022-12-24T06:29:38;9.65;;;3.85;;
71667;SDS011;59504;54.806;9.640;2022-12-24T06:31:57;13.18;;;4.15;;
71667;SDS011;59504;54.806;9.640;2022-12-24T06:34:16;13.55;;;4.80;;
71667;SDS011;59504;54.806;9.640;2022-12-24T06:36:34;11.88;;;4.20;;
71667;SDS011;59504;54.806;9.640;2022-12-24T06:38:54;8.77;;;4.05;;
71667;SDS011;59504;54.806;9.640;2022-12-24T06:41:13;8.95;;;3.63;;
71667;SDS011;59504;54.806;9.640;2022-12-24T06:43:33;9.55;;;3.67;;
71667;SDS011;59504;54.806;9.640;2022-12-24T06:45:53;12.52;;;3.38;;
71667;SDS011;59504;54.806;9.640;2022-12-24T06:48:12;8.27;;;3.58;;
71667;SDS011;59504;54.806;9.640;2022-12-24T06:50:33;10.65;;;4.22;;
71667;SDS011;59504;54.806;9.640;2022-12-24T06:52:52;10.40;;;4.45;;
71667;SDS011;59504;54.806;9.640;2022-12-24T06:55:11;9.43;;;3.80;;
71667;SDS011;59504;54.806;9.640;2022-12-24T06:57:31;11.85;;;3.80;;
71667;SDS011;59504;54.806;9.640;2022-12-24T06:59:50;11.30;;;3.90;;
71667;SDS011;59504;54.806;9.640;2022-12-24T07:02:09;9.10;;;3.65;;
71667;SDS011;59504;54.806;9.640;2022-12-24T07:04:28;11.40;;;4.30;;
71667;SDS011;59504;54.806;9.640;2022-12-24T07:06:47;9.65;;;3.50;;
71667;SDS011;59504;54.806;9.640;2022-12-24T07:09:08;10.85;;;4.07;;
71667;SDS011;59504;54.806;9.640;2022-12-24T07:13:50;13.60;;;4.15;;
71667;SDS011;59504;54.806;9.640;2022-12-24T07:16:09;11.68;;;4.25;;
71667;SDS011;59504;54.806;9.640;2022-12-24T07:18:28;17.52;;;3.95;;
71667;SDS011;59504;54.806;9.640;2022-12-24T07:20:47;14.07;;;4.15;;
71667;SDS011;59504;54.806;9.640;2022-12-24T07:23:06;16.40;;;4.07;;
71667;SDS011;59504;54.806;9.640;2022-12-24T07:25:25;11.75;;;4.72;;
71667;SDS011;59504;54.806;9.640;2022-12-24T07:27:45;9.82;;;4.20;;
71667;SDS011;59504;54.806;9.640;2022-12-24T07:30:04;10.68;;;3.85;;
71667;SDS011;59504;54.806;9.640;2022-12-24T07:32:24;11.57;;;4.05;;
71667;SDS011;59504;54.806;9.640;2022-12-24T07:34:43;15.57;;;4.53;;
71667;SDS011;59504;54.806;9.640;2022-12-24T07:37:02;15.23;;;4.90;;
71667;SDS011;59504;54.806;9.640;2022-12-24T07:39:21;10.27;;;4.03;;
71667;SDS011;59504;54.806;9.640;2022-12-24T07:41:40;10.90;;;4.68;;
71667;SDS011;59504;54.806;9.640;2022-12-24T07:43:59;14.18;;;5.93;;
71667;SDS011;59504;54.806;9.640;2022-12-24T07:46:18;13.90;;;5.28;;
71667;SDS011;59504;54.806;9.640;2022-12-24T07:48:37;23.40;;;5.63;;
71667;SDS011;59504;54.806;9.640;2022-12-24T07:50:56;17.17;;;4.80;;
71667;SDS011;59504;54.806;9.640;2022-12-24T07:53:16;18.77;;;5.53;;
71667;SDS011;59504;54.806;9.640;2022-12-24T07:55:35;10.48;;;5.30;;
71667;SDS011;59504;54.806;9.640;2022-12-24T07:57:54;13.52;;;5.10;;
71667;SDS011;59504;54.806;9.640;2022-12-24T08:00:13;13.13;;;5.28;;
71667;SDS011;59504;54.806;9.640;2022-12-24T08:02:32;13.68;;;4.75;;
71667;SDS011;59504;54.806;9.640;2022-12-24T08:04:53;11.93;;;5.30;;
71667;SDS011;59504;54.806;9.640;2022-12-24T08:07:12;17.92;;;5.95;;
71667;SDS011;59504;54.806;9.640;2022-12-24T08:09:33;22.30;;;5.53;;
71667;SDS011;59504;54.806;9.640;2022-12-24T08:11:53;12.07;;;5.35;;
71667;SDS011;59504;54.806;9.640;2022-12-24T08:14:14;16.38;;;5.32;;
71667;SDS011;59504;54.806;9.640;2022-12-24T08:16:33;15.93;;;5.65;;
71667;SDS011;59504;54.806;9.640;2022-12-24T08:18:52;12.90;;;5.80;;
71667;SDS011;59504;54.806;9.640;2022-12-24T08:21:11;16.50;;;5.50;;
71667;SDS011;59504;54.806;9.640;2022-12-24T08:23:30;20.55;;;5.85;;
71667;SDS011;59504;54.806;9.640;2022-12-24T08:25:49;13.05;;;5.45;;
71667;SDS011;59504;54.806;9.640;2022-12-24T08:28:09;13.05;;;5.20;;
71667;SDS011;59504;54.806;9.640;2022-12-24T08:30:28;14.45;;;5.38;;
71667;SDS011;59504;54.806;9.640;2022-12-24T08:32:48;16.30;;;5.35;;
71667;SDS011;59504;54.806;9.640;2022-12-24T08:35:07;11.93;;;5.22;;
71667;SDS011;59504;54.806;9.640;2022-12-24T08:37:26;18.05;;;5.20;;
71667;SDS011;59504;54.806;9.640;2022-12-24T08:39:46;13.63;;;4.82;;
71667;SDS011;59504;54.806;9.640;2022-12-24T08:42:05;15.30;;;4.60;;
71667;SDS011;59504;54.806;9.640;2022-12-24T08:44:24;15.02;;;5.40;;
71667;SDS011;59504;54.806;9.640;2022-12-24T08:46:43;10.63;;;5.22;;
71667;SDS011;59504;54.806;9.640;2022-12-24T08:49:02;9.60;;;4.70;;
71667;SDS011;59504;54.806;9.640;2022-12-24T08:51:21;14.60;;;5.80;;
71667;SDS011;59504;54.806;9.640;2022-12-24T08:53:40;14.02;;;5.10;;
71667;SDS011;59504;54.806;9.640;2022-12-24T08:56:00;14.95;;;5.38;;
71667;SDS011;59504;54.806;9.640;2022-12-24T08:58:24;13.95;;;5.00;;
71667;SDS011;59504;54.806;9.640;2022-12-24T09:00:43;12.48;;;4.72;;
71667;SDS011;59504;54.806;9.640;2022-12-24T09:03:02;14.05;;;5.20;;
71667;SDS011;59504;54.806;9.640;2022-12-24T09:05:21;13.00;;;5.80;;
71667;SDS011;59504;54.806;9.640;2022-12-24T09:07:40;11.57;;;5.40;;
71667;SDS011;59504;54.806;9.640;2022-12-24T09:09:59;17.80;;;5.97;;
71667;SDS011;59504;54.806;9.640;2022-12-24T09:12:18;17.88;;;5.55;;
71667;SDS011;59504;54.806;9.640;2022-12-24T09:14:37;11.45;;;6.28;;
71667;SDS011;59504;54.806;9.640;2022-12-24T09:16:56;15.00;;;6.82;;
71667;SDS011;59504;54.806;9.640;2022-12-24T09:19:15;18.95;;;7.70;;
71667;SDS011;59504;54.806;9.640;2022-12-24T09:21:34;17.55;;;7.78;;
71667;SDS011;59504;54.806;9.640;2022-12-24T09:23:54;23.02;;;7.15;;
71667;SDS011;59504;54.806;9.640;2022-12-24T09:26:18;24.20;;;7.68;;
71667;SDS011;59504;54.806;9.640;2022-12-24T09:28:39;19.65;;;7.28;;
71667;SDS011;59504;54.806;9.640;2022-12-24T09:31:00;17.17;;;6.95;;
71667;SDS011;59504;54.806;9.640;2022-12-24T09:33:21;19.35;;;7.25;;
71667;SDS011;59504;54.806;9.640;2022-12-24T09:35:40;19.90;;;7.07;;
71667;SDS011;59504;54.806;9.640;2022-12-24T09:37:59;20.48;;;6.53;;
71667;SDS011;59504;54.806;9.640;2022-12-24T09:40:23;23.15;;;7.15;;
71667;SDS011;59504;54.806;9.640;2022-12-24T09:42:53;16.42;;;6.45;;
71667;SDS011;59504;54.806;9.640;2022-12-24T09:45:14;13.63;;;6.25;;
71667;SDS011;59504;54.806;9.640;2022-12-24T09:47:40;16.92;;;6.10;;
71667;SDS011;59504;54.806;9.640;2022-12-24T09:53:00;12.73;;;5.53;;
71667;SDS011;59504;54.806;9.640;2022-12-24T09:57:43;8.57;;;4.47;;
71667;SDS011;59504;54.806;9.640;2022-12-24T10:00:05;13.18;;;5.53;;
71667;SDS011;59504;54.806;9.640;2022-12-24T10:02:34;11.73;;;5.50;;
71667;SDS011;59504;54.806;9.640;2022-12-24T10:04:53;14.18;;;6.03;;
71667;SDS011;59504;54.806;9.640;2022-12-24T10:12:29;16.98;;;6.03;;
71667;SDS011;59504;54.806;9.640;2022-12-24T10:19:51;14.15;;;5.43;;
71667;SDS011;59504;54.806;9.640;2022-12-24T10:22:54;19.48;;;4.65;;
71667;SDS011;59504;54.806;9.640;2022-12-24T10:25:13;11.80;;;4.32;;
71667;SDS011;59504;54.806;9.640;2022-12-24T10:27:22;13.10;;;4.88;;
71667;SDS011;59504;54.806;9.640;2022-12-24T10:29:31;13.63;;;4.60;;
71667;SDS011;59504;54.806;9.640;2022-12-24T10:31:41;18.00;;;4.50;;
71667;SDS011;59504;54.806;9.640;2022-12-24T10:33:54;7.95;;;3.55;;
71667;SDS011;59504;54.806;9.640;2022-12-24T10:35:58;12.10;;;4.28;;
71667;SDS011;59504;54.806;9.640;2022-12-24T10:38:00;7.47;;;4.05;;
71667;SDS011;59504;54.806;9.640;2022-12-24T10:40:03;9.77;;;4.28;;
71667;SDS011;59504;54.806;9.640;2022-12-24T10:42:04;13.07;;;4.45;;
71667;SDS011;59504;54.806;9.640;2022-12-24T10:44:07;18.90;;;5.88;;
71667;SDS011;59504;54.806;9.640;2022-12-24T10:46:26;16.30;;;4.70;;
71667;SDS011;59504;54.806;9.640;2022-12-24T10:48:34;13.80;;;4.43;;
71667;SDS011;59504;54.806;9.640;2022-12-24T10:50:40;10.43;;;5.03;;
71667;SDS011;59504;54.806;9.640;2022-12-24T10:52:50;9.05;;;4.03;;
71667;SDS011;59504;54.806;9.640;2022-12-24T10:57:21;15.50;;;4.47;;
71667;SDS011;59504;54.806;9.640;2022-12-24T10:59:35;10.00;;;4.45;;
71667;SDS011;59504;54.806;9.640;2022-12-24T11:01:45;13.10;;;5.13;;
71667;SDS011;59504;54.806;9.640;2022-12-24T11:03:58;9.13;;;4.53;;
71667;SDS011;59504;54.806;9.640;2022-12-24T11:10:27;8.95;;;3.55;;
71667;SDS011;59504;54.806;9.640;2022-12-24T11:12:59;9.43;;;4.30;;
71667;SDS011;59504;54.806;9.640;2022-12-24T11:15:16;10.90;;;4.63;;
71667;SDS011;59504;54.806;9.640;2022-12-24T11:17:25;9.68;;;4.55;;
71667;SDS011;59504;54.806;9.640;2022-12-24T11:21:34;13.82;;;4.28;;
71667;SDS011;59504;54.806;9.640;2022-12-24T11:23:37;15.25;;;6.45;;
71667;SDS011;59504;54.806;9.640;2022-12-24T11:25:38;12.25;;;6.63;;
71667;SDS011;59504;54.806;9.640;2022-12-24T11:27:44;11.07;;;5.70;;
71667;SDS011;59504;54.806;9.640;2022-12-24T11:29:46;18.33;;;7.78;;
71667;SDS011;59504;54.806;9.640;2022-12-24T11:31:47;10.45;;;5.32;;
71667;SDS011;59504;54.806;9.640;2022-12-24T11:33:50;15.70;;;5.00;;
71667;SDS011;59504;54.806;9.640;2022-12-24T11:36:01;10.20;;;5.18;;
71667;SDS011;59504;54.806;9.640;2022-12-24T11:40:08;12.02;;;5.18;;
71667;SDS011;59504;54.806;9.640;2022-12-24T11:42:25;10.15;;;5.15;;
71667;SDS011;59504;54.806;9.640;2022-12-24T11:44:32;13.30;;;4.97;;
71667;SDS011;59504;54.806;9.640;2022-12-24T11:46:36;10.95;;;4.50;;
71667;SDS011;59504;54.806;9.640;2022-12-24T11:48:39;15.25;;;5.60;;
71667;SDS011;59504;54.806;9.640;2022-12-24T11:50:39;11.30;;;4.63;;
71667;SDS011;59504;54.806;9.640;2022-12-24T11:52:40;12.50;;;4.93;;
71667;SDS011;59504;54.806;9.640;2022-12-24T11:54:45;18.52;;;10.13;;
71667;SDS011;59504;54.806;9.640;2022-12-24T11:56:48;13.88;;;8.40;;
71667;SDS011;59504;54.806;9.640;2022-12-24T11:58:55;13.88;;;7.85;;
71667;SDS011;59504;54.806;9.640;2022-12-24T12:01:22;11.10;;;5.97;;
71667;SDS011;59504;54.806;9.640;2022-12-24T12:03:31;16.63;;;8.05;;
71667;SDS011;59504;54.806;9.640;2022-12-24T12:05:36;14.70;;;6.43;;
71667;SDS011;59504;54.806;9.640;2022-12-24T12:07:38;9.45;;;4.68;;
71667;SDS011;59504;54.806;9.640;2022-12-24T12:09:42;10.70;;;4.57;;
71667;SDS011;59504;54.806;9.640;2022-12-24T12:11:53;10.45;;;4.53;;
71667;SDS011;59504;54.806;9.640;2022-12-24T12:13:59;11.93;;;5.15;;
71667;SDS011;59504;54.806;9.640;2022-12-24T12:18:56;10.43;;;4.55;;
71667;SDS011;59504;54.806;9.640;2022-12-24T12:21:03;16.10;;;4.50;;
71667;SDS011;59504;54.806;9.640;2022-12-24T12:23:29;7.60;;;3.50;;
71667;SDS011;59504;54.806;9.640;2022-12-24T12:26:06;11.05;;;3.70;;
71667;SDS011;59504;54.806;9.640;2022-12-24T12:28:40;8.32;;;4.20;;
71667;SDS011;59504;54.806;9.640;2022-12-24T12:33:56;16.52;;;4.53;;
71667;SDS011;59504;54.806;9.640;2022-12-24T12:36:25;7.93;;;3.55;;
71667;SDS011;59504;54.806;9.640;2022-12-24T12:39:16;10.77;;;4.03;;
71667;SDS011;59504;54.806;9.640;2022-12-24T12:41:20;11.80;;;4.10;;
71667;SDS011;59504;54.806;9.640;2022-12-24T12:55:28;11.98;;;4.18;;
71667;SDS011;59504;54.806;9.640;2022-12-24T12:57:58;15.27;;;4.53;;
71667;SDS011;59504;54.806;9.640;2022-12-24T13:00:22;11.77;;;3.92;;
71667;SDS011;59504;54.806;9.640;2022-12-24T13:05:37;11.43;;;3.97;;
71667;SDS011;59504;54.806;9.640;2022-12-24T13:15:59;9.45;;;4.05;;
71667;SDS011;59504;54.806;9.640;2022-12-24T13:21:27;9.43;;;3.65;;
71667;SDS011;59504;54.806;9.640;2022-12-24T13:23:49;7.03;;;3.80;;
71667;SDS011;59504;54.806;9.640;2022-12-24T13:26:11;10.45;;;4.10;;
71667;SDS011;59504;54.806;9.640;2022-12-24T13:28:33;11.80;;;4.03;;
71667;SDS011;59504;54.806;9.640;2022-12-24T13:33:46;14.93;;;4.43;;
71667;SDS011;59504;54.806;9.640;2022-12-24T13:36:09;9.88;;;4.68;;
71667;SDS011;59504;54.806;9.640;2022-12-24T13:38:54;10.13;;;4.47;;
71667;SDS011;59504;54.806;9.640;2022-12-24T13:46:45;8.68;;;4.28;;
71667;SDS011;59504;54.806;9.640;2022-12-24T13:51:48;16.52;;;5.55;;
71667;SDS011;59504;54.806;9.640;2022-12-24T13:54:10;14.90;;;4.70;;
71667;SDS011;59504;54.806;9.640;2022-12-24T13:56:34;12.48;;;4.97;;
71667;SDS011;59504;54.806;9.640;2022-12-24T13:59:10;10.63;;;5.00;;
71667;SDS011;59504;54.806;9.640;2022-12-24T14:01:49;18.20;;;4.85;;
71667;SDS011;59504;54.806;9.640;2022-12-24T14:04:09;14.73;;;5.20;;
71667;SDS011;59504;54.806;9.640;2022-12-24T14:06:48;11.60;;;4.25;;
71667;SDS011;59504;54.806;9.640;2022-12-24T14:11:22;14.60;;;5.00;;
71667;SDS011;59504;54.806;9.640;2022-12-24T14:18:25;10.55;;;4.55;;
71667;SDS011;59504;54.806;9.640;2022-12-24T14:20:55;16.90;;;5.03;;
71667;SDS011;59504;54.806;9.640;2022-12-24T14:23:30;12.27;;;4.78;;
71667;SDS011;59504;54.806;9.640;2022-12-24T14:25:55;13.63;;;5.03;;
71667;SDS011;59504;54.806;9.640;2022-12-24T14:28:16;9.90;;;4.50;;
71667;SDS011;59504;54.806;9.640;2022-12-24T14:30:40;11.75;;;4.57;;
71667;SDS011;59504;54.806;9.640;2022-12-24T14:32:59;8.48;;;3.83;;
71667;SDS011;59504;54.806;9.640;2022-12-24T14:35:20;17.92;;;5.15;;
71667;SDS011;59504;54.806;9.640;2022-12-24T14:37:47;11.95;;;4.97;;
71667;SDS011;59504;54.806;9.640;2022-12-24T14:40:14;12.57;;;5.32;;
71667;SDS011;59504;54.806;9.640;2022-12-24T14:42:48;9.57;;;4.43;;
71667;SDS011;59504;54.806;9.640;2022-12-24T14:50:31;9.18;;;4.93;;
71667;SDS011;59504;54.806;9.640;2022-12-24T14:55:41;10.50;;;5.13;;
71667;SDS011;59504;54.806;9.640;2022-12-24T15:00:45;11.43;;;4.95;;
71667;SDS011;59504;54.806;9.640;2022-12-24T15:03:07;10.85;;;4.85;;
71667;SDS011;59504;54.806;9.640;2022-12-24T15:05:34;11.20;;;4.80;;
71667;SDS011;59504;54.806;9.640;2022-12-24T15:07:58;9.85;;;5.15;;
71667;SDS011;59504;54.806;9.640;2022-12-24T15:10:31;10.73;;;4.57;;
71667;SDS011;59504;54.806;9.640;2022-12-24T15:12:53;10.38;;;4.75;;
71667;SDS011;59504;54.806;9.640;2022-12-24T15:15:15;7.78;;;4.40;;
71667;SDS011;59504;54.806;9.640;2022-12-24T15:17:35;9.70;;;4.63;;
71667;SDS011;59504;54.806;9.640;2022-12-24T15:20:01;11.45;;;4.97;;
71667;SDS011;59504;54.806;9.640;2022-12-24T15:22:23;9.60;;;5.30;;
71667;SDS011;59504;54.806;9.640;2022-12-24T15:24:47;9.38;;;4.53;;
71667;SDS011;59504;54.806;9.640;2022-12-24T15:27:14;11.70;;;5.20;;
71667;SDS011;59504;54.806;9.640;2022-12-24T15:29:38;13.35;;;5.20;;
71667;SDS011;59504;54.806;9.640;2022-12-24T15:32:01;14.27;;;5.47;;
71667;SDS011;59504;54.806;9.640;2022-12-24T15:34:24;8.80;;;5.25;;
71667;SDS011;59504;54.806;9.640;2022-12-24T15:36:44;9.25;;;4.85;;
71667;SDS011;59504;54.806;9.640;2022-12-24T15:39:06;10.32;;;5.72;;